Time;durP1;ratioP1;P1;durP2;ratioP2;P2;SDS_P1;SDS_P2;PMS_P1;PMS_P2;Temp;Humidity;BMP_temperature;BMP_pressure;BME280_temperature;BME280_humidity;BME280_pressure;Samples;Min_cycle;Max_cycle;Signal;HPM_P1;HPM_P2
2024/03/17 00:00:15;;;;;;;3.70;2.97;;;;;;;;;;4974435;28;20058;-81
2024/03/17 00:02:41;;;;;;;3.67;3.10;;;;;;;;;;4961241;28;20121;-79
2024/03/17 00:05:06;;;;;;;4.20;3.17;;;;;;;;;;4956176;28;20039;-79
2024/03/17 00:07:32;;;;;;;3.92;3.20;;;;;;;;;;4981335;28;20038;-79
2024/03/17 00:09:57;;;;;;;4.43;3.50;;;;;;;;;;4963625;28;20042;-79
2024/03/17 00:12:23;;;;;;;3.60;3.20;;;;;;;;;;4969296;28;20054;-79
2024/03/17 00:14:48;;;;;;;4.13;3.40;;;;;;;;;;4972904;28;20066;-79
2024/03/17 00:17:15;;;;;;;3.90;2.97;;;;;;;;;;4973877;28;20125;-79
2024/03/17 00:19:40;;;;;;;4.50;3.03;;;;;;;;;;4967694;28;20042;-79
2024/03/17 00:22:08;;;;;;;4.35;3.30;;;;;;;;;;4987112;28;20395;-81
2024/03/17 00:24:34;;;;;;;3.80;3.03;;;;;;;;;;4975116;28;20035;-80
2024/03/17 00:27:00;;;;;;;3.85;3.45;;;;;;;;;;4959224;28;20034;-80
2024/03/17 00:29:26;;;;;;;4.03;3.38;;;;;;;;;;4985683;28;20184;-80
2024/03/17 00:31:51;;;;;;;3.83;3.20;;;;;;;;;;4963482;28;20435;-79
2024/03/17 00:34:17;;;;;;;3.80;3.38;;;;;;;;;;4984690;28;20039;-81
2024/03/17 00:36:43;;;;;;;3.30;2.95;;;;;;;;;;4989147;28;20046;-80
2024/03/17 00:39:08;;;;;;;4.60;3.30;;;;;;;;;;4977881;28;20353;-80
2024/03/17 00:41:33;;;;;;;4.45;3.40;;;;;;;;;;4963024;28;20066;-80
2024/03/17 00:44:00;;;;;;;3.90;3.20;;;;;;;;;;4968950;28;20121;-81
2024/03/17 00:46:27;;;;;;;4.10;3.15;;;;;;;;;;4971213;28;20681;-81
2024/03/17 00:48:53;;;;;;;4.47;3.42;;;;;;;;;;4959050;28;20074;-81
2024/03/17 00:51:18;;;;;;;4.53;3.30;;;;;;;;;;4967060;28;20038;-81
2024/03/17 00:53:44;;;;;;;4.60;3.38;;;;;;;;;;4964074;28;20089;-80
2024/03/17 00:56:09;;;;;;;4.15;3.20;;;;;;;;;;4967647;28;20047;-80
2024/03/17 00:58:35;;;;;;;4.43;3.83;;;;;;;;;;4963469;28;20117;-81
2024/03/17 01:03:36;;;;;;;4.15;3.50;;;;;;;;;;1385774;26;20128;-57
2024/03/17 01:06:04;;;;;;;4.15;3.28;;;;;;;;;;5022937;28;20136;-57
2024/03/17 01:08:29;;;;;;;4.40;3.47;;;;;;;;;;5020459;28;20496;-57
2024/03/17 01:10:55;;;;;;;4.55;3.30;;;;;;;;;;5024764;28;20116;-57
2024/03/17 01:13:20;;;;;;;3.90;3.28;;;;;;;;;;5024713;28;20048;-56
2024/03/17 01:15:45;;;;;;;4.75;3.47;;;;;;;;;;5023813;28;20049;-58
2024/03/17 01:18:11;;;;;;;3.83;3.30;;;;;;;;;;5025577;28;20045;-59
2024/03/17 01:20:37;;;;;;;4.40;3.40;;;;;;;;;;5026281;28;20041;-56
2024/03/17 01:23:02;;;;;;;3.83;3.40;;;;;;;;;;5013971;28;20053;-63
2024/03/17 01:25:29;;;;;;;4.45;3.67;;;;;;;;;;5023054;28;20041;-64
2024/03/17 01:27:54;;;;;;;5.13;3.67;;;;;;;;;;5024279;28;20065;-65
2024/03/17 01:30:20;;;;;;;4.18;3.70;;;;;;;;;;5024155;28;20072;-64
2024/03/17 01:32:48;;;;;;;4.35;3.50;;;;;;;;;;5013558;28;20033;-65
2024/03/17 01:35:14;;;;;;;5.15;3.55;;;;;;;;;;5020988;28;20749;-63
2024/03/17 01:37:39;;;;;;;4.50;3.65;;;;;;;;;;5023776;28;20093;-64
2024/03/17 01:40:08;;;;;;;4.38;3.38;;;;;;;;;;5023690;28;20047;-65
2024/03/17 01:42:33;;;;;;;4.82;3.42;;;;;;;;;;5023905;28;20107;-64
2024/03/17 01:44:58;;;;;;;4.70;3.67;;;;;;;;;;5024228;28;20128;-64
2024/03/17 01:47:24;;;;;;;4.78;3.63;;;;;;;;;;5025302;28;20060;-62
2024/03/17 01:49:49;;;;;;;4.38;3.47;;;;;;;;;;5025758;28;20406;-68
2024/03/17 01:52:15;;;;;;;5.10;3.80;;;;;;;;;;5024826;28;20052;-64
2024/03/17 01:54:41;;;;;;;5.30;3.80;;;;;;;;;;5018039;28;20033;-63
2024/03/17 01:57:07;;;;;;;5.40;3.53;;;;;;;;;;5025055;28;20073;-65
2024/03/17 01:59:32;;;;;;;4.53;3.85;;;;;;;;;;5025492;28;20065;-65
2024/03/17 02:01:57;;;;;;;4.03;3.42;;;;;;;;;;5024875;28;20527;-63
2024/03/17 02:04:22;;;;;;;3.85;3.25;;;;;;;;;;5022551;28;20064;-62
2024/03/17 02:06:48;;;;;;;3.88;3.40;;;;;;;;;;5023810;28;20118;-63
2024/03/17 02:09:13;;;;;;;4.43;3.47;;;;;;;;;;5024925;28;20522;-63
2024/03/17 02:11:38;;;;;;;3.97;3.13;;;;;;;;;;5023194;28;20125;-63
2024/03/17 02:14:06;;;;;;;4.68;3.60;;;;;;;;;;5024731;28;20041;-63
2024/03/17 02:16:31;;;;;;;4.80;3.63;;;;;;;;;;5023923;28;20049;-63
2024/03/17 02:18:57;;;;;;;4.57;3.70;;;;;;;;;;5025503;28;20095;-63
2024/03/17 02:21:27;;;;;;;4.22;3.80;;;;;;;;;;5024767;28;20424;-63
2024/03/17 02:23:52;;;;;;;4.22;3.63;;;;;;;;;;5024305;28;20033;-63
2024/03/17 02:26:18;;;;;;;4.50;3.70;;;;;;;;;;5023714;28;20065;-65
2024/03/17 02:28:44;;;;;;;4.13;3.72;;;;;;;;;;5025748;28;20038;-66
2024/03/17 02:31:10;;;;;;;3.92;3.35;;;;;;;;;;5028055;28;20124;-63
2024/03/17 02:33:35;;;;;;;4.43;3.92;;;;;;;;;;5025822;28;20112;-63
2024/03/17 02:36:03;;;;;;;4.82;3.42;;;;;;;;;;5027621;28;20041;-63
2024/03/17 02:41:13;;;;;;;4.20;3.67;;;;;;;;;;5024790;28;20103;-63
2024/03/17 02:43:38;;;;;;;5.18;4.28;;;;;;;;;;5028478;28;20541;-64
2024/03/17 02:46:04;;;;;;;5.13;3.80;;;;;;;;;;5026938;28;20686;-64
2024/03/17 02:48:30;;;;;;;4.20;3.70;;;;;;;;;;5028252;28;20087;-62
2024/03/17 02:50:56;;;;;;;4.72;3.70;;;;;;;;;;5028454;28;20485;-62
2024/03/17 02:53:21;;;;;;;4.63;3.78;;;;;;;;;;5028330;28;20029;-64
2024/03/17 02:55:46;;;;;;;4.38;3.78;;;;;;;;;;5026814;28;20033;-64
2024/03/17 02:58:12;;;;;;;4.63;3.85;;;;;;;;;;5028812;28;20033;-62
2024/03/17 03:00:37;;;;;;;4.70;3.92;;;;;;;;;;5028716;28;20025;-64
2024/03/17 03:03:02;;;;;;;4.82;3.50;;;;;;;;;;5027778;28;20044;-64
2024/03/17 03:05:27;;;;;;;4.30;3.65;;;;;;;;;;5027615;28;20787;-64
2024/03/17 03:07:53;;;;;;;4.50;3.60;;;;;;;;;;5029236;28;20042;-64
2024/03/17 03:10:18;;;;;;;5.40;4.07;;;;;;;;;;5028319;28;20806;-63
2024/03/17 03:12:43;;;;;;;3.90;3.40;;;;;;;;;;5027871;28;20056;-64
2024/03/17 03:15:09;;;;;;;4.18;3.70;;;;;;;;;;5028497;28;20112;-64
2024/03/17 03:17:34;;;;;;;4.88;3.92;;;;;;;;;;5028007;28;20037;-64
2024/03/17 03:20:01;;;;;;;4.05;3.40;;;;;;;;;;5028381;28;20056;-64
2024/03/17 03:22:26;;;;;;;5.10;3.47;;;;;;;;;;5028442;28;20492;-64
2024/03/17 03:24:52;;;;;;;4.63;3.60;;;;;;;;;;5027193;28;20037;-64
2024/03/17 03:27:17;;;;;;;6.88;3.97;;;;;;;;;;5028249;28;20048;-64
2024/03/17 03:29:43;;;;;;;4.38;3.55;;;;;;;;;;5028358;28;20025;-64
2024/03/17 03:32:08;;;;;;;4.35;3.58;;;;;;;;;;5026986;28;20055;-64
2024/03/17 03:34:33;;;;;;;5.60;3.88;;;;;;;;;;5028148;28;20038;-64
2024/03/17 03:36:59;;;;;;;4.68;3.67;;;;;;;;;;5026859;28;20041;-65
2024/03/17 03:39:26;;;;;;;4.63;3.80;;;;;;;;;;5026599;28;20104;-63
2024/03/17 03:41:52;;;;;;;6.22;3.95;;;;;;;;;;5027060;28;20489;-63
2024/03/17 03:44:18;;;;;;;4.55;3.78;;;;;;;;;;5026703;28;20059;-63
2024/03/17 03:46:44;;;;;;;5.05;3.90;;;;;;;;;;5026196;28;20040;-63
2024/03/17 03:49:10;;;;;;;5.68;3.97;;;;;;;;;;5026492;28;20052;-64
2024/03/17 03:51:35;;;;;;;4.50;3.80;;;;;;;;;;5026500;28;20513;-64
2024/03/17 03:54:00;;;;;;;4.50;3.67;;;;;;;;;;5025704;28;20029;-64
2024/03/17 03:56:25;;;;;;;4.88;3.90;;;;;;;;;;5026250;28;20124;-64
2024/03/17 03:58:51;;;;;;;4.63;4.00;;;;;;;;;;5026141;28;20404;-64
2024/03/17 04:01:21;;;;;;;5.15;3.85;;;;;;;;;;5026513;28;20048;-64
2024/03/17 04:03:46;;;;;;;;;;;;;;;;;;5027231;28;20161;-64
2024/03/17 04:06:14;;;;;;;4.40;3.93;;;;;;;;;;5025870;28;19912;-64
2024/03/17 04:08:42;;;;;;;4.72;3.83;;;;;;;;;;5025736;28;20040;-63
2024/03/17 04:11:08;;;;;;;5.00;3.90;;;;;;;;;;5025873;28;20445;-64
2024/03/17 04:13:33;;;;;;;4.47;3.78;;;;;;;;;;5025773;28;20041;-64
2024/03/17 04:15:59;;;;;;;4.32;3.75;;;;;;;;;;5025952;28;20072;-62
2024/03/17 04:18:30;;;;;;;4.25;3.60;;;;;;;;;;5025583;28;20042;-65
2024/03/17 04:20:55;;;;;;;4.50;3.67;;;;;;;;;;5026232;28;20598;-64
2024/03/17 04:23:24;;;;;;;4.20;3.38;;;;;;;;;;5025541;28;20068;-64
2024/03/17 04:25:50;;;;;;;4.65;4.05;;;;;;;;;;5026962;28;20082;-64
2024/03/17 04:28:15;;;;;;;4.78;3.95;;;;;;;;;;5025589;28;20022;-64
2024/03/17 04:30:42;;;;;;;5.05;4.40;;;;;;;;;;5025799;28;20520;-64
2024/03/17 04:33:07;;;;;;;4.03;3.60;;;;;;;;;;5022611;28;20048;-64
2024/03/17 04:35:36;;;;;;;5.10;4.22;;;;;;;;;;5026174;28;20029;-64
2024/03/17 04:38:01;;;;;;;4.90;3.78;;;;;;;;;;5024994;28;20037;-64
2024/03/17 04:40:26;;;;;;;5.03;4.25;;;;;;;;;;5025825;28;20041;-64
2024/03/17 04:42:52;;;;;;;4.45;3.83;;;;;;;;;;5025498;28;20061;-64
2024/03/17 04:45:17;;;;;;;4.45;3.78;;;;;;;;;;5026069;28;20067;-64
2024/03/17 04:47:42;;;;;;;5.25;3.67;;;;;;;;;;5024789;28;20053;-63
2024/03/17 04:50:08;;;;;;;4.43;3.88;;;;;;;;;;5025397;28;20428;-64
2024/03/17 04:52:33;;;;;;;5.05;4.15;;;;;;;;;;5024518;28;20037;-64
2024/03/17 04:54:58;;;;;;;4.00;3.60;;;;;;;;;;5025181;28;20061;-64
2024/03/17 04:57:24;;;;;;;4.32;3.60;;;;;;;;;;5025128;28;20049;-64
2024/03/17 04:59:49;;;;;;;4.63;4.13;;;;;;;;;;5025404;28;20065;-64
2024/03/17 05:02:14;;;;;;;4.95;3.75;;;;;;;;;;5019150;28;20075;-64
2024/03/17 05:04:42;;;;;;;4.80;4.03;;;;;;;;;;5025661;28;20520;-64
2024/03/17 05:07:07;;;;;;;4.40;3.90;;;;;;;;;;5024771;28;20029;-64
2024/03/17 05:09:32;;;;;;;5.50;4.03;;;;;;;;;;5015257;28;20040;-64
2024/03/17 05:11:57;;;;;;;5.22;4.40;;;;;;;;;;5016802;28;20436;-64
2024/03/17 05:14:23;;;;;;;4.65;3.88;;;;;;;;;;5020589;28;20049;-64
2024/03/17 05:16:49;;;;;;;5.25;4.13;;;;;;;;;;5024645;28;20138;-64
2024/03/17 05:19:15;;;;;;;4.43;3.90;;;;;;;;;;5024835;28;20034;-64
2024/03/17 05:21:40;;;;;;;4.63;4.05;;;;;;;;;;5025185;28;20032;-64
2024/03/17 05:24:06;;;;;;;5.13;4.30;;;;;;;;;;5024937;28;20132;-64
2024/03/17 05:26:31;;;;;;;4.50;3.88;;;;;;;;;;5025136;28;20064;-64
2024/03/17 05:28:56;;;;;;;4.40;3.97;;;;;;;;;;5022678;28;20029;-64
2024/03/17 05:31:22;;;;;;;4.75;3.97;;;;;;;;;;5024348;28;20037;-64
2024/03/17 05:33:47;;;;;;;4.25;3.65;;;;;;;;;;5020840;28;20091;-64
2024/03/17 05:36:12;;;;;;;4.22;3.80;;;;;;;;;;5024612;28;20089;-64
2024/03/17 05:38:38;;;;;;;5.57;3.65;;;;;;;;;;5022843;28;20048;-64
2024/03/17 05:41:04;;;;;;;4.60;3.67;;;;;;;;;;5024937;28;20037;-63
2024/03/17 05:43:33;;;;;;;5.22;3.67;;;;;;;;;;5008972;28;20068;-64
2024/03/17 05:45:58;;;;;;;5.03;4.00;;;;;;;;;;5008017;28;20106;-63
2024/03/17 05:48:26;;;;;;;6.53;4.40;;;;;;;;;;5011919;28;20042;-64
2024/03/17 05:50:51;;;;;;;5.03;3.95;;;;;;;;;;5021249;28;20061;-63
2024/03/17 05:53:18;;;;;;;5.93;3.90;;;;;;;;;;5016774;28;20091;-63
2024/03/17 05:55:43;;;;;;;4.47;4.05;;;;;;;;;;5021499;28;20235;-63
2024/03/17 05:58:09;;;;;;;4.95;4.07;;;;;;;;;;5020117;28;20049;-63
2024/03/17 06:00:35;;;;;;;4.30;3.63;;;;;;;;;;5019855;28;20061;-63
2024/03/17 06:03:00;;;;;;;4.75;4.18;;;;;;;;;;5020945;28;20209;-63
2024/03/17 06:05:25;;;;;;;5.82;4.00;;;;;;;;;;5023425;28;20128;-64
2024/03/17 06:07:51;;;;;;;5.35;3.80;;;;;;;;;;5019735;28;20033;-63
2024/03/17 06:10:16;;;;;;;4.78;4.20;;;;;;;;;;5018514;28;20975;-64
2024/03/17 06:12:41;;;;;;;6.60;3.85;;;;;;;;;;5019052;28;20099;-63
2024/03/17 06:15:07;;;;;;;4.28;3.88;;;;;;;;;;5020109;28;21953;-63
2024/03/17 06:17:32;;;;;;;5.05;3.80;;;;;;;;;;5029890;28;20037;-64
2024/03/17 06:19:57;;;;;;;4.63;3.50;;;;;;;;;;5020249;28;20063;-63
2024/03/17 06:22:23;;;;;;;4.70;3.97;;;;;;;;;;5018316;28;20037;-63
2024/03/17 06:24:49;;;;;;;4.65;3.53;;;;;;;;;;5018493;28;20033;-63
2024/03/17 06:27:14;;;;;;;5.03;3.88;;;;;;;;;;5019896;28;20482;-63
2024/03/17 06:29:40;;;;;;;4.75;3.67;;;;;;;;;;5019005;28;20527;-63
2024/03/17 06:32:05;;;;;;;4.50;3.58;;;;;;;;;;5019160;28;20038;-64
2024/03/17 06:34:30;;;;;;;4.20;3.78;;;;;;;;;;5019655;28;20026;-64
2024/03/17 06:36:55;;;;;;;4.30;3.70;;;;;;;;;;5018874;28;20041;-64
2024/03/17 06:39:21;;;;;;;4.95;3.67;;;;;;;;;;5019288;28;20029;-63
2024/03/17 06:41:46;;;;;;;4.60;4.10;;;;;;;;;;5019433;28;20037;-64
2024/03/17 06:44:11;;;;;;;4.53;3.88;;;;;;;;;;5019381;28;20187;-64
2024/03/17 06:46:37;;;;;;;4.85;3.95;;;;;;;;;;5019711;28;20037;-63
2024/03/17 06:49:02;;;;;;;4.45;3.65;;;;;;;;;;5018421;28;20037;-62
2024/03/17 06:51:27;;;;;;;4.85;4.10;;;;;;;;;;5016528;28;20089;-64
2024/03/17 06:53:53;;;;;;;5.45;4.07;;;;;;;;;;5015819;28;20045;-63
2024/03/17 06:56:18;;;;;;;4.70;3.92;;;;;;;;;;5016923;28;20149;-63
2024/03/17 06:58:43;;;;;;;4.45;3.80;;;;;;;;;;5017437;28;20118;-63
2024/03/17 07:01:08;;;;;;;6.00;3.85;;;;;;;;;;5019294;28;20662;-63
2024/03/17 07:03:34;;;;;;;4.03;3.25;;;;;;;;;;5015616;28;20812;-63
2024/03/17 07:06:02;;;;;;;5.25;3.80;;;;;;;;;;5018936;28;20037;-63
2024/03/17 07:08:27;;;;;;;5.82;3.90;;;;;;;;;;5019563;28;20040;-63
2024/03/17 07:11:05;;;;;;;5.00;3.97;;;;;;;;;;5018654;28;20022;-63
2024/03/17 07:13:34;;;;;;;5.32;3.75;;;;;;;;;;5018600;28;20056;-63
2024/03/17 07:16:02;;;;;;;4.38;3.90;;;;;;;;;;5010673;28;20136;-64
2024/03/17 07:18:28;;;;;;;4.68;3.80;;;;;;;;;;5017792;28;20042;-64
2024/03/17 07:20:56;;;;;;;5.10;3.72;;;;;;;;;;5018702;28;20034;-64
2024/03/17 07:23:21;;;;;;;4.47;3.67;;;;;;;;;;5018242;28;20117;-64
2024/03/17 07:25:53;;;;;;;5.00;3.95;;;;;;;;;;5019047;28;20418;-64
2024/03/17 07:28:19;;;;;;;6.18;4.00;;;;;;;;;;5018834;28;20398;-63
2024/03/17 07:31:02;;;;;;;5.10;4.15;;;;;;;;;;5017227;28;20509;-63
2024/03/17 07:33:28;;;;;;;5.32;3.75;;;;;;;;;;5015727;28;20057;-64
2024/03/17 07:35:54;;;;;;;5.88;3.97;;;;;;;;;;5017026;28;20159;-64
2024/03/17 07:38:20;;;;;;;4.68;4.03;;;;;;;;;;5016135;28;20021;-64
2024/03/17 07:40:45;;;;;;;4.30;3.78;;;;;;;;;;5015037;28;20024;-64
2024/03/17 07:43:11;;;;;;;4.47;3.78;;;;;;;;;;5015143;28;20018;-64
2024/03/17 07:45:37;;;;;;;5.03;3.90;;;;;;;;;;5017833;28;20018;-64
2024/03/17 07:48:02;;;;;;;5.47;3.88;;;;;;;;;;5016083;28;20041;-64
2024/03/17 07:50:28;;;;;;;4.85;3.97;;;;;;;;;;5015598;28;20017;-64
2024/03/17 07:52:53;;;;;;;6.05;4.20;;;;;;;;;;5018504;28;20049;-64
2024/03/17 07:55:18;;;;;;;6.40;4.50;;;;;;;;;;5018035;28;20060;-64
2024/03/17 07:57:44;;;;;;;4.70;4.00;;;;;;;;;;5017566;28;20064;-64
2024/03/17 08:00:15;;;;;;;4.97;4.22;;;;;;;;;;5017909;28;20042;-64
2024/03/17 08:02:43;;;;;;;4.82;4.00;;;;;;;;;;5017468;28;20385;-64
2024/03/17 08:05:08;;;;;;;6.05;3.75;;;;;;;;;;5016473;28;20053;-64
2024/03/17 08:07:34;;;;;;;5.35;3.78;;;;;;;;;;5017320;28;20723;-67
2024/03/17 08:09:59;;;;;;;7.20;4.20;;;;;;;;;;5018127;28;20041;-64
2024/03/17 08:12:24;;;;;;;5.38;3.90;;;;;;;;;;5018199;28;20505;-63
2024/03/17 08:14:50;;;;;;;5.47;4.22;;;;;;;;;;5017176;28;20501;-63
2024/03/17 08:17:15;;;;;;;5.10;4.40;;;;;;;;;;5018644;28;20116;-64
2024/03/17 08:19:41;;;;;;;4.50;3.83;;;;;;;;;;5017140;28;20029;-63
2024/03/17 08:22:06;;;;;;;5.65;4.10;;;;;;;;;;5017801;28;20112;-64
2024/03/17 08:24:32;;;;;;;4.78;4.00;;;;;;;;;;5018045;28;20037;-63
2024/03/17 08:26:58;;;;;;;5.45;4.03;;;;;;;;;;5017302;28;20131;-64
2024/03/17 08:29:23;;;;;;;4.57;3.70;;;;;;;;;;5017734;28;20630;-65
2024/03/17 08:31:49;;;;;;;5.95;4.32;;;;;;;;;;5017731;28;20037;-64
2024/03/17 08:34:15;;;;;;;6.10;4.13;;;;;;;;;;5017497;28;20044;-64
2024/03/17 08:36:40;;;;;;;5.65;3.65;;;;;;;;;;5015825;28;20432;-65
2024/03/17 08:39:05;;;;;;;4.90;4.05;;;;;;;;;;5017582;28;20033;-64
2024/03/17 08:41:31;;;;;;;5.18;4.22;;;;;;;;;;5017103;28;20718;-64
2024/03/17 08:43:57;;;;;;;4.85;3.92;;;;;;;;;;5019153;28;20080;-64
2024/03/17 08:46:23;;;;;;;6.70;4.60;;;;;;;;;;5019331;28;20032;-64
2024/03/17 08:48:48;;;;;;;5.47;3.70;;;;;;;;;;5019893;28;20037;-67
2024/03/17 08:51:13;;;;;;;4.95;4.05;;;;;;;;;;5015642;28;20037;-66
2024/03/17 08:53:39;;;;;;;12.90;8.25;;;;;;;;;;5019272;28;20041;-68
2024/03/17 08:56:06;;;;;;;5.85;4.95;;;;;;;;;;5016123;28;20080;-64
2024/03/17 08:58:31;;;;;;;5.13;4.03;;;;;;;;;;5017413;28;20129;-65
2024/03/17 09:00:57;;;;;;;5.15;4.07;;;;;;;;;;5018092;28;20483;-65
2024/03/17 09:03:22;;;;;;;5.45;3.85;;;;;;;;;;5016055;28;20040;-64
2024/03/17 09:05:47;;;;;;;5.07;4.10;;;;;;;;;;5017721;28;20043;-64
2024/03/17 09:08:17;;;;;;;5.25;4.00;;;;;;;;;;5014881;28;20740;-64
2024/03/17 09:10:43;;;;;;;;;;;;;;;;;;5016852;28;20026;-64
2024/03/17 09:13:15;;;;;;;4.93;3.92;;;;;;;;;;5017620;28;19917;-64
2024/03/17 09:15:41;;;;;;;5.20;3.65;;;;;;;;;;5016144;28;20061;-65
2024/03/17 09:18:06;;;;;;;4.97;4.15;;;;;;;;;;5016717;28;20069;-65
2024/03/17 09:20:31;;;;;;;5.55;4.18;;;;;;;;;;5016257;28;20087;-64
2024/03/17 09:22:57;;;;;;;4.78;4.07;;;;;;;;;;5016236;28;20116;-64
2024/03/17 09:25:23;;;;;;;4.93;3.83;;;;;;;;;;5015807;28;20141;-64
2024/03/17 09:27:48;;;;;;;4.97;4.00;;;;;;;;;;5015653;28;22283;-66
2024/03/17 09:30:14;;;;;;;6.10;4.35;;;;;;;;;;5016862;28;20036;-65
2024/03/17 09:32:41;;;;;;;5.90;4.50;;;;;;;;;;5013083;28;20048;-65
2024/03/17 09:35:06;;;;;;;5.15;3.70;;;;;;;;;;5015799;28;20707;-61
2024/03/17 09:37:31;;;;;;;5.15;4.00;;;;;;;;;;5017650;28;20033;-64
2024/03/17 09:39:58;;;;;;;7.90;5.70;;;;;;;;;;5020812;28;20044;-70
2024/03/17 09:42:23;;;;;;;5.80;4.45;;;;;;;;;;5017493;28;20056;-64
2024/03/17 09:44:49;;;;;;;5.25;4.30;;;;;;;;;;5016733;28;20541;-64
2024/03/17 09:47:16;;;;;;;8.23;4.00;;;;;;;;;;5009492;28;22119;-64
2024/03/17 09:49:41;;;;;;;5.60;4.10;;;;;;;;;;5020262;28;20552;-60
2024/03/17 09:52:07;;;;;;;5.80;4.07;;;;;;;;;;5017233;28;20076;-63
2024/03/17 09:54:33;;;;;;;4.90;3.90;;;;;;;;;;5009722;28;20042;-63
2024/03/17 09:56:59;;;;;;;5.57;4.20;;;;;;;;;;5016571;28;20064;-63
2024/03/17 09:59:24;;;;;;;4.95;4.05;;;;;;;;;;5017146;28;20045;-63
2024/03/17 10:01:50;;;;;;;6.18;4.22;;;;;;;;;;5016407;28;20071;-64
2024/03/17 10:04:25;;;;;;;6.32;4.00;;;;;;;;;;5014171;28;20064;-63
2024/03/17 10:06:51;;;;;;;4.57;3.85;;;;;;;;;;5014272;28;20091;-64
2024/03/17 10:09:21;;;;;;;4.80;3.90;;;;;;;;;;5016094;28;20476;-64
2024/03/17 10:11:46;;;;;;;;;;;;;;;;;;5016448;28;20030;-64
2024/03/17 10:14:12;;;;;;;4.33;3.90;;;;;;;;;;5015422;28;20297;-65
2024/03/17 10:16:38;;;;;;;4.75;3.75;;;;;;;;;;5013839;28;20148;-62
2024/03/17 10:19:13;;;;;;;5.25;3.83;;;;;;;;;;5017304;28;20037;-63
2024/03/17 10:21:39;;;;;;;4.40;3.70;;;;;;;;;;5016217;28;20156;-62
2024/03/17 10:24:08;;;;;;;5.03;4.18;;;;;;;;;;5016207;28;20030;-62
2024/03/17 10:26:38;;;;;;;4.87;4.17;;;;;;;;;;5015052;28;20614;-63
2024/03/17 10:29:04;;;;;;;5.13;4.05;;;;;;;;;;5015791;28;20033;-64
2024/03/17 10:31:30;;;;;;;5.10;4.05;;;;;;;;;;5016083;28;20044;-62
2024/03/17 10:34:02;;;;;;;4.68;3.67;;;;;;;;;;5014220;28;20176;-65
2024/03/17 10:36:27;;;;;;;5.50;4.13;;;;;;;;;;5015669;28;20076;-63
2024/03/17 10:38:55;;;;;;;5.68;3.67;;;;;;;;;;5018081;28;20068;-64
2024/03/17 10:41:20;;;;;;;4.15;3.53;;;;;;;;;;5016943;28;20032;-71
2024/03/17 10:43:46;;;;;;;4.00;3.40;;;;;;;;;;5016875;28;20034;-63
2024/03/17 10:46:11;;;;;;;4.55;3.85;;;;;;;;;;5016865;28;20065;-63
2024/03/17 10:48:37;;;;;;;5.50;3.70;;;;;;;;;;5014817;28;20188;-63
2024/03/17 10:51:02;;;;;;;5.72;3.90;;;;;;;;;;5018973;28;20026;-63
2024/03/17 10:53:27;;;;;;;4.25;3.60;;;;;;;;;;5019625;28;21033;-63
2024/03/17 10:56:04;;;;;;;5.47;3.50;;;;;;;;;;5017533;28;20535;-63
2024/03/17 10:58:34;;;;;;;5.32;3.90;;;;;;;;;;5017890;28;20137;-64
2024/03/17 11:01:02;;;;;;;4.57;3.35;;;;;;;;;;5020283;28;20362;-64
2024/03/17 11:03:28;;;;;;;6.28;3.60;;;;;;;;;;5019035;28;20505;-78
2024/03/17 11:05:53;;;;;;;5.10;3.80;;;;;;;;;;5023582;28;20045;-76
2024/03/17 11:08:18;;;;;;;4.35;3.63;;;;;;;;;;5020180;28;20049;-63
2024/03/17 11:10:52;;;;;;;4.10;3.63;;;;;;;;;;5025606;28;20065;-63
2024/03/17 11:13:24;;;;;;;4.15;3.47;;;;;;;;;;5025612;28;20050;-64
2024/03/17 11:15:50;;;;;;;5.03;3.70;;;;;;;;;;5026890;28;20062;-63
2024/03/17 11:18:22;;;;;;;4.68;3.70;;;;;;;;;;5027199;28;20044;-63
2024/03/17 11:20:56;;;;;;;5.32;3.50;;;;;;;;;;5026084;28;20037;-63
2024/03/17 11:23:31;;;;;;;4.75;3.67;;;;;;;;;;5026194;28;20037;-64
2024/03/17 11:25:57;;;;;;;4.13;3.42;;;;;;;;;;5020878;28;20034;-63
2024/03/17 11:28:41;;;;;;;4.82;4.13;;;;;;;;;;5018513;28;20045;-64
2024/03/17 11:31:10;;;;;;;5.13;3.67;;;;;;;;;;5019845;28;20037;-63
2024/03/17 11:33:35;;;;;;;5.03;3.60;;;;;;;;;;5006858;28;20064;-64
2024/03/17 11:36:28;;;;;;;5.57;3.35;;;;;;;;;;5015510;28;20124;-63
2024/03/17 11:38:53;;;;;;;4.38;3.60;;;;;;;;;;5028571;28;20041;-64
2024/03/17 11:41:30;;;;;;;4.20;3.40;;;;;;;;;;5024338;28;20497;-64
2024/03/17 11:44:12;;;;;;;4.65;3.30;;;;;;;;;;5018376;28;20040;-64
2024/03/17 11:46:37;;;;;;;5.78;3.60;;;;;;;;;;5018215;28;20428;-63
2024/03/17 11:49:03;;;;;;;5.70;3.78;;;;;;;;;;5021577;28;20040;-63
2024/03/17 11:51:29;;;;;;;4.95;3.38;;;;;;;;;;5020168;28;20069;-62
2024/03/17 11:53:58;;;;;;;4.43;3.53;;;;;;;;;;5019744;28;20045;-62
2024/03/17 11:56:23;;;;;;;4.95;3.58;;;;;;;;;;5019334;28;20147;-63
2024/03/17 11:59:03;;;;;;;5.35;3.40;;;;;;;;;;5020436;28;20132;-63
2024/03/17 12:01:28;;;;;;;4.80;3.17;;;;;;;;;;5018855;28;20033;-63
2024/03/17 12:03:54;;;;;;;4.55;3.38;;;;;;;;;;5018090;28;20056;-63
2024/03/17 12:06:20;;;;;;;4.70;3.22;;;;;;;;;;5016877;28;20053;-64
2024/03/17 12:08:45;;;;;;;6.25;3.10;;;;;;;;;;5023188;28;20040;-63
2024/03/17 12:11:19;;;;;;;5.35;3.47;;;;;;;;;;5022882;28;20116;-63
2024/03/17 12:13:44;;;;;;;4.82;3.45;;;;;;;;;;5017198;28;20376;-64
2024/03/17 12:16:13;;;;;;;5.45;3.70;;;;;;;;;;5017928;28;20031;-63
2024/03/17 12:18:41;;;;;;;4.63;3.20;;;;;;;;;;5019787;28;20535;-63
2024/03/17 12:21:12;;;;;;;5.03;3.42;;;;;;;;;;5021980;28;20045;-63
2024/03/17 12:23:37;;;;;;;4.47;3.47;;;;;;;;;;5015791;28;20045;-63
2024/03/17 12:26:03;;;;;;;5.75;3.60;;;;;;;;;;5017286;28;20103;-63
2024/03/17 12:28:28;;;;;;;5.45;3.53;;;;;;;;;;5017414;28;20075;-66
2024/03/17 12:30:55;;;;;;;4.90;3.45;;;;;;;;;;5011989;28;20037;-62
2024/03/17 12:33:20;;;;;;;4.97;3.60;;;;;;;;;;5010328;28;20052;-63
2024/03/17 12:35:45;;;;;;;4.47;3.30;;;;;;;;;;5008536;28;20472;-64
2024/03/17 12:38:21;;;;;;;5.22;4.10;;;;;;;;;;5010258;28;20493;-63
2024/03/17 12:40:46;;;;;;;6.05;3.35;;;;;;;;;;5022211;28;20436;-63
2024/03/17 12:43:12;;;;;;;4.68;3.50;;;;;;;;;;5020833;28;20045;-62
2024/03/17 12:45:37;;;;;;;5.13;3.40;;;;;;;;;;5008476;28;20064;-62
2024/03/17 12:48:03;;;;;;;4.97;3.60;;;;;;;;;;5014000;28;20476;-63
2024/03/17 12:50:28;;;;;;;4.68;3.60;;;;;;;;;;5017775;28;20061;-64
2024/03/17 12:52:55;;;;;;;4.95;3.97;;;;;;;;;;5019688;28;20033;-65
2024/03/17 13:00:58;;;;;;;5.45;3.78;;;;;;;;;;5020532;28;20117;-61
2024/03/17 13:03:24;;;;;;;4.97;3.45;;;;;;;;;;5017948;28;20083;-61
2024/03/17 13:05:49;;;;;;;5.55;3.70;;;;;;;;;;5018601;28;20036;-63
2024/03/17 13:08:15;;;;;;;4.38;3.40;;;;;;;;;;5016940;28;20033;-63
2024/03/17 13:10:40;;;;;;;4.90;3.80;;;;;;;;;;5015825;28;20069;-65
2024/03/17 13:13:12;;;;;;;5.53;4.18;;;;;;;;;;4992980;28;20053;-64
2024/03/17 13:15:37;;;;;;;6.53;3.85;;;;;;;;;;4996017;28;20038;-63
2024/03/17 13:18:03;;;;;;;6.20;4.30;;;;;;;;;;5004530;28;20049;-64
2024/03/17 13:20:29;;;;;;;5.22;4.03;;;;;;;;;;5000739;28;20120;-63
2024/03/17 13:22:54;;;;;;;5.47;3.60;;;;;;;;;;4998777;28;20553;-65
2024/03/17 13:25:24;;;;;;;5.22;4.10;;;;;;;;;;4999135;28;20042;-65
2024/03/17 13:27:50;;;;;;;5.25;3.70;;;;;;;;;;5000316;28;20527;-64
2024/03/17 13:30:15;;;;;;;5.10;4.05;;;;;;;;;;4995414;28;20061;-64
2024/03/17 13:32:47;;;;;;;4.90;3.88;;;;;;;;;;4999416;28;20127;-65
2024/03/17 13:35:19;;;;;;;5.40;3.97;;;;;;;;;;4998598;28;20034;-64
2024/03/17 13:37:45;;;;;;;5.95;4.07;;;;;;;;;;4999630;28;20143;-65
2024/03/17 13:40:12;;;;;;;5.55;3.97;;;;;;;;;;4999136;28;20030;-64
2024/03/17 13:42:38;;;;;;;5.57;3.88;;;;;;;;;;4997687;28;20599;-64
2024/03/17 13:45:03;;;;;;;7.20;4.70;;;;;;;;;;4997936;28;20041;-64
2024/03/17 13:47:28;;;;;;;5.70;4.40;;;;;;;;;;4998914;28;20036;-63
2024/03/17 13:49:54;;;;;;;5.15;4.20;;;;;;;;;;4991814;28;20123;-63
2024/03/17 13:52:19;;;;;;;5.55;4.30;;;;;;;;;;4998357;28;20041;-64
2024/03/17 13:54:45;;;;;;;5.03;4.18;;;;;;;;;;4998379;28;20135;-63
2024/03/17 13:57:12;;;;;;;6.13;4.80;;;;;;;;;;4998238;28;20434;-63
2024/03/17 13:59:37;;;;;;;6.05;4.45;;;;;;;;;;4998436;28;20055;-61
2024/03/17 14:02:02;;;;;;;5.05;4.00;;;;;;;;;;4998577;28;20445;-65
2024/03/17 14:04:28;;;;;;;6.00;4.57;;;;;;;;;;4998392;28;22083;-62
2024/03/17 14:06:53;;;;;;;5.28;4.20;;;;;;;;;;4997167;28;20061;-62
2024/03/17 14:09:19;;;;;;;5.63;4.38;;;;;;;;;;5000402;28;20115;-62
2024/03/17 14:11:45;;;;;;;5.88;4.70;;;;;;;;;;4998135;28;20034;-64
2024/03/17 14:14:11;;;;;;;5.93;4.30;;;;;;;;;;4999080;28;20164;-64
2024/03/17 14:16:36;;;;;;;8.98;4.95;;;;;;;;;;4997901;28;20099;-63
2024/03/17 14:19:01;;;;;;;6.43;4.45;;;;;;;;;;4999026;28;20053;-65
2024/03/17 14:21:27;;;;;;;5.57;4.40;;;;;;;;;;4974909;28;20073;-64
2024/03/17 14:23:53;;;;;;;5.78;4.72;;;;;;;;;;4998998;28;20061;-62
2024/03/17 14:26:18;;;;;;;7.85;4.45;;;;;;;;;;5002629;28;20560;-63
2024/03/17 14:28:44;;;;;;;6.32;4.70;;;;;;;;;;5002077;28;20112;-63
2024/03/17 14:31:09;;;;;;;6.28;4.60;;;;;;;;;;5002689;28;20132;-63
2024/03/17 14:33:35;;;;;;;5.32;4.50;;;;;;;;;;5001337;28;20304;-64
2024/03/17 14:36:00;;;;;;;6.72;4.93;;;;;;;;;;5001841;28;20045;-64
2024/03/17 14:38:25;;;;;;;6.10;4.43;;;;;;;;;;5002294;28;20034;-63
2024/03/17 14:40:54;;;;;;;6.13;4.78;;;;;;;;;;5002805;28;20050;-63
2024/03/17 14:43:19;;;;;;;7.10;4.80;;;;;;;;;;5001958;28;20509;-62
2024/03/17 14:45:45;;;;;;;6.25;4.95;;;;;;;;;;5003914;28;20030;-64
2024/03/17 14:48:11;;;;;;;7.15;4.70;;;;;;;;;;5001648;28;20025;-61